Albany, Georgia
Current Conditions -  °F | °C
As of 10:53 AM on Monday 26 Jan 2015 (Local Time) from KABY Reporting Station
Overcast Overcast  
Wind Chill: 44°   Ceiling: 2800
Heat Index: 49°   Visibility: 10mi
Dew Point: 37°   Wind: 12mph
Humidity: 64%   Direction: 300°WNW
Pressure: 29.95"   Gusts: 24mph
Location:  31.58°N, 84.15°W
Report Text: KABY 261553Z 30010G21KT 10SM OVC028 09/03 A2995 RMK AO2 PK WND 29028/1506 SLP141 T00940028
Loading
Personal Weather Stations






























Interactive Weather Map New forecast layout! Learn more

10-Day Weather Forecast

Advertisements
Track Severe Weather on mobile